Astin, Texas
Current Conditions -  °F | °C
As of 4:15 AM on Sunday 23 Nov 2014 (Local Time) from KLHB Reporting Station
Drizzle Drizzle  
Wind Chill: 58°   Ceiling: 500
Heat Index: 58°   Visibility: 7mi
Dew Point: 57°   Wind: 6mph
Humidity: 97%   Direction: 220°SW
Pressure: 29.66"   Gusts: NA
Location:  30.8324°N, 96.5749°W
Report Text: KLHB 231015Z AUTO 22005KT 7SM -DZ OVC005 15/14 A2966 RMK AO2 T01460141
Loading
Personal Weather Stations






























Interactive Weather Map New forecast layout! Learn more

10-Day Weather Forecast

Advertisements
Track Severe Weather on mobile